Time;durP1;ratioP1;P1;durP2;ratioP2;P2;SDS_P1;SDS_P2;PMS_P1;PMS_P2;Temp;Humidity;BMP_temperature;BMP_pressure;BME280_temperature;BME280_humidity;BME280_pressure;Samples;Min_cycle;Max_cycle;Signal;HPM_P1;HPM_P2
2022/06/09 00:01:28;;;;;;;4.85;3.30;;;;;;;;;;5055219;28;20041;-67
2022/06/09 00:04:16;;;;;;;4.38;3.42;;;;;;;;;;5055381;28;20375;-67
2022/06/09 00:06:46;;;;;;;4.07;3.22;;;;;;;;;;5054980;28;20122;-67
2022/06/09 00:09:15;;;;;;;4.75;3.45;;;;;;;;;;5055229;28;20021;-67
2022/06/09 00:11:46;;;;;;;5.25;3.70;;;;;;;;;;5054348;28;20100;-67
2022/06/09 00:16:47;;;;;;;5.40;3.50;;;;;;;;;;5382273;23;20543;-66
2022/06/09 00:19:13;;;;;;;4.40;3.60;;;;;;;;;;4976294;28;20031;-65
2022/06/09 00:21:39;;;;;;;5.97;3.70;;;;;;;;;;4989228;28;20038;-65
2022/06/09 00:24:06;;;;;;;3.90;3.50;;;;;;;;;;4992319;28;20384;-66
2022/06/09 00:26:32;;;;;;;6.32;3.45;;;;;;;;;;4976127;28;20033;-66
2022/06/09 00:28:57;;;;;;;4.28;3.20;;;;;;;;;;4974919;28;20041;-66
2022/06/09 00:31:24;;;;;;;4.25;3.47;;;;;;;;;;4975955;28;20027;-64
2022/06/09 00:33:49;;;;;;;4.25;3.30;;;;;;;;;;4975942;28;20030;-66
2022/06/09 00:36:15;;;;;;;4.22;3.40;;;;;;;;;;4975994;28;20082;-67
2022/06/09 00:38:41;;;;;;;6.72;3.50;;;;;;;;;;4976022;28;20094;-66
2022/06/09 00:41:07;;;;;;;5.82;3.90;;;;;;;;;;4975993;28;20057;-66
2022/06/09 00:43:32;;;;;;;5.05;3.55;;;;;;;;;;4975972;28;20023;-66
2022/06/09 00:46:13;;;;;;;5.40;3.40;;;;;;;;;;4975611;28;20031;-67
2022/06/09 00:48:53;;;;;;;5.40;3.28;;;;;;;;;;4975818;28;20023;-65
2022/06/09 00:51:30;;;;;;;;;;;;;;;;;;4976121;28;20391;-66
2022/06/09 00:54:04;;;;;;;4.15;2.90;;;;;;;;;;4975693;28;20009;-65
2022/06/09 00:56:31;;;;;;;5.30;3.28;;;;;;;;;;4975742;28;20061;-65
2022/06/09 00:58:57;;;;;;;7.00;3.95;;;;;;;;;;4975483;28;20468;-64
2022/06/09 01:01:23;;;;;;;6.25;3.17;;;;;;;;;;4975739;28;20027;-65
2022/06/09 01:03:55;;;;;;;6.82;3.45;;;;;;;;;;4975602;28;20058;-64
2022/06/09 01:06:26;;;;;;;5.55;3.38;;;;;;;;;;4975473;28;20034;-66
2022/06/09 01:09:12;;;;;;;4.97;3.10;;;;;;;;;;4975611;28;20352;-66
2022/06/09 01:11:39;;;;;;;4.47;2.80;;;;;;;;;;4975422;28;20090;-64
2022/06/09 01:14:07;;;;;;;4.75;2.90;;;;;;;;;;4975074;28;20042;-66
2022/06/09 01:17:04;;;;;;;6.60;2.95;;;;;;;;;;4980587;28;20038;-66
2022/06/09 01:20:24;;;;;;;4.13;2.80;;;;;;;;;;4994688;28;20034;-65
2022/06/09 01:22:52;;;;;;;;;;;;;;;;;;4973306;28;20041;-64
2022/06/09 01:25:45;;;;;;;6.03;3.10;;;;;;;;;;4973000;28;19957;-64
2022/06/09 01:28:19;;;;;;;3.35;2.60;;;;;;;;;;4972701;28;20041;-64
2022/06/09 01:31:18;;;;;;;5.68;3.20;;;;;;;;;;4973061;28;20046;-64
2022/06/09 01:33:51;;;;;;;6.35;3.53;;;;;;;;;;4972789;28;20034;-66
2022/06/09 01:36:25;;;;;;;6.35;3.10;;;;;;;;;;4956439;28;20384;-65
2022/06/09 01:38:54;;;;;;;4.03;3.22;;;;;;;;;;4972795;28;20519;-64
2022/06/09 01:41:22;;;;;;;3.53;2.90;;;;;;;;;;4972807;28;20035;-66
2022/06/09 01:43:49;;;;;;;4.25;3.03;;;;;;;;;;4972687;28;20037;-65
2022/06/09 01:46:33;;;;;;;6.13;3.08;;;;;;;;;;4972833;28;20150;-66
2022/06/09 01:49:24;;;;;;;4.00;3.00;;;;;;;;;;4956583;28;20391;-66
2022/06/09 01:51:52;;;;;;;4.45;3.17;;;;;;;;;;4957778;28;20128;-66
2022/06/09 01:54:23;;;;;;;4.40;3.28;;;;;;;;;;4953138;29;20397;-66
2022/06/09 01:56:59;;;;;;;4.88;3.38;;;;;;;;;;4954311;29;20039;-67
2022/06/09 01:59:35;;;;;;;4.53;3.00;;;;;;;;;;4955282;28;20049;-67
2022/06/09 02:02:06;;;;;;;6.20;3.38;;;;;;;;;;4955295;28;20476;-66
2022/06/09 02:04:40;;;;;;;4.47;3.03;;;;;;;;;;4955296;28;20117;-67
2022/06/09 02:07:08;;;;;;;7.78;3.20;;;;;;;;;;4955191;28;20038;-66
2022/06/09 02:09:35;;;;;;;5.72;3.08;;;;;;;;;;4955139;28;20031;-66
2022/06/09 02:12:05;;;;;;;6.40;3.30;;;;;;;;;;4954891;28;20023;-66
2022/06/09 02:14:31;;;;;;;3.75;3.35;;;;;;;;;;4955115;28;20034;-67
2022/06/09 02:16:57;;;;;;;4.75;2.85;;;;;;;;;;4963238;28;20053;-67
2022/06/09 02:19:24;;;;;;;4.55;3.08;;;;;;;;;;4993562;28;20042;-67
2022/06/09 02:21:50;;;;;;;4.35;3.47;;;;;;;;;;4993766;28;20041;-66
2022/06/09 02:24:16;;;;;;;5.95;3.38;;;;;;;;;;4993660;28;20018;-66
2022/06/09 02:26:41;;;;;;;6.80;3.30;;;;;;;;;;4993274;28;20109;-67
2022/06/09 02:29:07;;;;;;;3.78;3.30;;;;;;;;;;4993661;28;20019;-67
2022/06/09 02:31:32;;;;;;;4.65;3.25;;;;;;;;;;4992398;28;20037;-66
2022/06/09 02:33:58;;;;;;;5.07;3.15;;;;;;;;;;4993050;28;20479;-66
2022/06/09 02:36:24;;;;;;;5.82;3.45;;;;;;;;;;4993336;28;20030;-65
2022/06/09 02:38:50;;;;;;;3.95;3.55;;;;;;;;;;4993478;28;20471;-65
2022/06/09 02:41:16;;;;;;;5.53;3.75;;;;;;;;;;4993254;28;20029;-64
2022/06/09 02:43:42;;;;;;;8.55;3.65;;;;;;;;;;4993482;28;20030;-66
2022/06/09 02:46:08;;;;;;;9.88;3.55;;;;;;;;;;4993371;28;20027;-65
2022/06/09 02:48:34;;;;;;;4.22;3.47;;;;;;;;;;4993401;28;20038;-66
2022/06/09 02:51:27;;;;;;;4.20;3.50;;;;;;;;;;4993353;28;20023;-66
2022/06/09 02:53:56;;;;;;;5.45;3.60;;;;;;;;;;4985129;28;20038;-67
2022/06/09 02:56:23;;;;;;;4.78;3.50;;;;;;;;;;4970937;28;20456;-63
2022/06/09 02:58:48;;;;;;;4.65;3.25;;;;;;;;;;4973934;28;20039;-63
2022/06/09 03:01:14;;;;;;;4.85;3.22;;;;;;;;;;4973817;28;20118;-65
2022/06/09 03:03:40;;;;;;;6.80;4.45;;;;;;;;;;4973962;28;20050;-65
2022/06/09 03:06:05;;;;;;;7.80;3.63;;;;;;;;;;4973688;28;20027;-66
2022/06/09 03:08:31;;;;;;;5.75;3.35;;;;;;;;;;4973834;28;20031;-65
2022/06/09 03:10:57;;;;;;;4.97;3.67;;;;;;;;;;4973565;28;20027;-65
2022/06/09 03:13:23;;;;;;;5.75;3.53;;;;;;;;;;4973691;28;20387;-66
2022/06/09 03:15:50;;;;;;;4.75;3.35;;;;;;;;;;4973425;28;20046;-66
2022/06/09 03:18:17;;;;;;;5.47;3.50;;;;;;;;;;4959005;28;20031;-66
2022/06/09 03:20:42;;;;;;;8.95;4.30;;;;;;;;;;4954340;28;20023;-65
2022/06/09 03:23:08;;;;;;;4.32;3.80;;;;;;;;;;4954415;28;20131;-67
2022/06/09 03:25:34;;;;;;;10.65;4.63;;;;;;;;;;4953936;28;20031;-66
2022/06/09 03:27:59;;;;;;;6.13;4.05;;;;;;;;;;4954211;28;20035;-67
2022/06/09 03:30:25;;;;;;;6.18;4.03;;;;;;;;;;4954414;28;20028;-66
2022/06/09 03:32:50;;;;;;;8.15;4.13;;;;;;;;;;4954344;28;20038;-66
2022/06/09 03:35:16;;;;;;;7.45;4.15;;;;;;;;;;4968934;28;20031;-66
2022/06/09 03:37:42;;;;;;;5.97;4.50;;;;;;;;;;4954205;28;20035;-67
2022/06/09 03:40:13;;;;;;;6.20;4.53;;;;;;;;;;4953990;28;20031;-67
2022/06/09 03:42:38;;;;;;;10.13;4.45;;;;;;;;;;4954052;28;20031;-67
2022/06/09 03:45:04;;;;;;;9.38;4.40;;;;;;;;;;4954346;28;20023;-67
2022/06/09 03:47:29;;;;;;;15.88;5.35;;;;;;;;;;4957754;28;20035;-66
2022/06/09 03:49:55;;;;;;;11.20;4.45;;;;;;;;;;4957655;28;20114;-67
2022/06/09 03:52:20;;;;;;;11.07;4.40;;;;;;;;;;4957797;28;20114;-66
2022/06/09 03:54:46;;;;;;;3.95;3.45;;;;;;;;;;4957387;28;20425;-66
2022/06/09 03:57:11;;;;;;;6.47;4.18;;;;;;;;;;4957338;28;20035;-66
2022/06/09 03:59:37;;;;;;;8.35;4.00;;;;;;;;;;4957451;29;20054;-65
2022/06/09 04:02:03;;;;;;;4.93;3.70;;;;;;;;;;4957357;28;20476;-65
2022/06/09 04:04:28;;;;;;;6.30;3.72;;;;;;;;;;4957490;28;20074;-66
2022/06/09 04:06:54;;;;;;;7.97;3.70;;;;;;;;;;4957261;28;20371;-65
2022/06/09 04:09:20;;;;;;;5.82;3.78;;;;;;;;;;4957165;28;20030;-67
2022/06/09 04:11:46;;;;;;;5.68;3.63;;;;;;;;;;4957216;28;20035;-64
2022/06/09 04:14:11;;;;;;;6.30;3.78;;;;;;;;;;4957023;28;20361;-66
2022/06/09 04:16:44;;;;;;;6.93;3.65;;;;;;;;;;4959795;28;20054;-64
2022/06/09 04:19:12;;;;;;;4.82;3.60;;;;;;;;;;4995878;28;20033;-65
2022/06/09 04:21:38;;;;;;;9.02;4.40;;;;;;;;;;4995777;28;20027;-64
2022/06/09 04:24:04;;;;;;;6.65;3.55;;;;;;;;;;4995458;28;20025;-66
2022/06/09 04:26:34;;;;;;;4.10;3.22;;;;;;;;;;4995518;28;20483;-66
2022/06/09 04:29:00;;;;;;;4.78;3.70;;;;;;;;;;4995670;28;20030;-66
2022/06/09 04:31:25;;;;;;;4.45;3.88;;;;;;;;;;4995555;28;20471;-66
2022/06/09 04:33:51;;;;;;;10.20;3.80;;;;;;;;;;4995519;28;20109;-64
2022/06/09 04:36:19;;;;;;;5.80;3.38;;;;;;;;;;4995321;28;20022;-66
2022/06/09 04:38:46;;;;;;;4.95;3.67;;;;;;;;;;4995433;28;20486;-64
2022/06/09 04:41:13;;;;;;;6.50;4.00;;;;;;;;;;4995439;28;20049;-65
2022/06/09 04:43:41;;;;;;;5.30;3.80;;;;;;;;;;4995411;28;20021;-65
2022/06/09 04:46:09;;;;;;;7.07;3.70;;;;;;;;;;4995343;28;20057;-66
2022/06/09 04:48:36;;;;;;;6.22;3.90;;;;;;;;;;4995251;28;20061;-65
2022/06/09 04:51:04;;;;;;;7.05;4.30;;;;;;;;;;4995171;28;20491;-65
2022/06/09 04:53:30;;;;;;;8.35;3.63;;;;;;;;;;4995092;28;20027;-65
2022/06/09 04:55:56;;;;;;;5.50;3.80;;;;;;;;;;4994873;28;20495;-65
2022/06/09 04:58:22;;;;;;;10.23;4.00;;;;;;;;;;4995147;28;20030;-67
2022/06/09 05:00:48;;;;;;;8.38;4.20;;;;;;;;;;4995032;28;20395;-64
2022/06/09 05:03:13;;;;;;;7.13;3.80;;;;;;;;;;4994659;28;20113;-66
2022/06/09 05:05:43;;;;;;;5.30;3.70;;;;;;;;;;4994851;28;20152;-66
2022/06/09 05:08:11;;;;;;;6.20;3.65;;;;;;;;;;4994895;28;20026;-64
2022/06/09 05:10:36;;;;;;;5.22;4.00;;;;;;;;;;4994884;28;20065;-64
2022/06/09 05:13:05;;;;;;;5.18;3.90;;;;;;;;;;4994754;28;20105;-66
2022/06/09 05:15:36;;;;;;;12.35;4.40;;;;;;;;;;4994187;28;20028;-66
2022/06/09 05:18:02;;;;;;;;;;;;;;;;;;4994949;28;20117;-64
2022/06/09 05:20:28;;;;;;;7.18;4.18;;;;;;;;;;4990325;28;19918;-67
2022/06/09 05:22:54;;;;;;;6.18;3.70;;;;;;;;;;4975001;28;20033;-67
2022/06/09 05:25:20;;;;;;;7.68;4.30;;;;;;;;;;4972149;28;20573;-67
2022/06/09 05:27:46;;;;;;;4.53;3.80;;;;;;;;;;4955755;28;20027;-66
2022/06/09 05:30:16;;;;;;;5.85;3.60;;;;;;;;;;4956830;28;20461;-65
2022/06/09 05:32:41;;;;;;;7.35;4.05;;;;;;;;;;4975024;28;20058;-66
2022/06/09 05:35:09;;;;;;;6.68;4.10;;;;;;;;;;4974552;28;20035;-65
2022/06/09 05:45:48;;;;;;;16.40;4.68;;;;;;;;;;4974840;28;20400;-66
2022/06/09 05:48:13;;;;;;;10.38;4.10;;;;;;;;;;4974646;28;20030;-64
2022/06/09 05:50:39;;;;;;;6.90;3.47;;;;;;;;;;4974334;28;20596;-65
2022/06/09 05:53:05;;;;;;;8.65;3.45;;;;;;;;;;4974724;28;20412;-68
2022/06/09 05:55:31;;;;;;;6.60;3.53;;;;;;;;;;4974609;28;20034;-67
2022/06/09 05:57:57;;;;;;;6.43;3.47;;;;;;;;;;4974511;28;20063;-65
2022/06/09 06:00:23;;;;;;;7.32;3.60;;;;;;;;;;4974647;28;20062;-67
2022/06/09 06:02:49;;;;;;;8.85;3.97;;;;;;;;;;4974405;28;20066;-64
2022/06/09 06:07:59;;;;;;;5.30;3.38;;;;;;;;;;4973773;28;20471;-68
2022/06/09 06:10:25;;;;;;;7.70;3.05;;;;;;;;;;4974339;28;20113;-65
2022/06/09 06:12:50;;;;;;;7.57;3.20;;;;;;;;;;4973050;28;20041;-68
2022/06/09 06:15:16;;;;;;;4.85;3.00;;;;;;;;;;4974234;28;20031;-66
2022/06/09 06:17:42;;;;;;;4.70;3.10;;;;;;;;;;4966240;28;20143;-66
2022/06/09 06:20:09;;;;;;;16.80;4.57;;;;;;;;;;4964840;28;20031;-67
2022/06/09 06:22:35;;;;;;;7.07;2.90;;;;;;;;;;4964155;28;20027;-65
2022/06/09 06:25:02;;;;;;;5.80;3.05;;;;;;;;;;4927677;28;20045;-64
2022/06/09 06:27:28;;;;;;;4.43;2.70;;;;;;;;;;4965006;28;20027;-66
2022/06/09 06:29:54;;;;;;;3.70;2.80;;;;;;;;;;4958590;28;20443;-63
2022/06/09 06:32:20;;;;;;;4.05;2.90;;;;;;;;;;4960065;28;20014;-64
2022/06/09 06:34:45;;;;;;;10.40;3.35;;;;;;;;;;4957705;28;20113;-64
2022/06/09 06:37:11;;;;;;;5.05;2.92;;;;;;;;;;4965833;28;20427;-66
2022/06/09 06:39:36;;;;;;;7.18;2.30;;;;;;;;;;4964020;28;20556;-66
2022/06/09 06:42:02;;;;;;;3.80;2.30;;;;;;;;;;4966089;28;20022;-65
2022/06/09 06:44:28;;;;;;;3.65;2.50;;;;;;;;;;4966544;28;20015;-67
2022/06/09 06:46:53;;;;;;;15.13;4.18;;;;;;;;;;4963798;28;20027;-66
2022/06/09 06:49:19;;;;;;;4.45;2.42;;;;;;;;;;4966233;28;20031;-67
2022/06/09 06:51:44;;;;;;;6.20;2.65;;;;;;;;;;4965937;28;20062;-67
2022/06/09 06:54:11;;;;;;;5.47;2.90;;;;;;;;;;4966853;28;20063;-66
2022/06/09 06:56:37;;;;;;;5.75;2.75;;;;;;;;;;4965045;28;20411;-66
2022/06/09 06:59:03;;;;;;;3.53;2.67;;;;;;;;;;4966519;28;20395;-66
2022/06/09 07:01:29;;;;;;;3.30;2.30;;;;;;;;;;4970891;28;20038;-66
2022/06/09 07:03:56;;;;;;;6.05;2.72;;;;;;;;;;4966480;28;20153;-67
2022/06/09 07:06:21;;;;;;;6.95;2.60;;;;;;;;;;4970201;28;21493;-65
2022/06/09 07:08:47;;;;;;;5.03;3.25;;;;;;;;;;4970212;28;20023;-65
2022/06/09 07:11:13;;;;;;;4.65;2.67;;;;;;;;;;4972005;28;20026;-64
2022/06/09 07:13:39;;;;;;;5.65;2.63;;;;;;;;;;4968395;28;20062;-64
2022/06/09 07:16:06;;;;;;;5.63;2.40;;;;;;;;;;4968446;28;20078;-64
2022/06/09 07:18:35;;;;;;;6.68;2.72;;;;;;;;;;4970169;28;20088;-64
2022/06/09 07:21:01;;;;;;;8.40;3.22;;;;;;;;;;4975632;28;20019;-65
2022/06/09 07:23:29;;;;;;;8.43;3.13;;;;;;;;;;4970922;28;20440;-65
2022/06/09 07:25:56;;;;;;;4.53;2.75;;;;;;;;;;4972371;28;20062;-65
2022/06/09 07:28:22;;;;;;;5.00;3.03;;;;;;;;;;4974014;28;20034;-64
2022/06/09 07:30:48;;;;;;;6.45;3.25;;;;;;;;;;4972095;28;20093;-67
2022/06/09 07:33:14;;;;;;;6.43;3.05;;;;;;;;;;4972533;28;20023;-66
2022/06/09 07:35:41;;;;;;;12.85;3.78;;;;;;;;;;4972568;28;20035;-66
2022/06/09 07:38:09;;;;;;;82.40;13.98;;;;;;;;;;4974022;28;20035;-66
2022/06/09 07:40:37;;;;;;;40.50;10.25;;;;;;;;;;4971999;28;20045;-66
2022/06/09 07:43:03;;;;;;;235.00;34.50;;;;;;;;;;4971172;28;20039;-66
2022/06/09 07:45:29;;;;;;;193.25;31.92;;;;;;;;;;4970689;28;20081;-68
2022/06/09 07:47:55;;;;;;;172.05;26.33;;;;;;;;;;4967876;28;20105;-67
2022/06/09 07:50:21;;;;;;;229.02;38.83;;;;;;;;;;4968549;28;20539;-68
2022/06/09 07:52:47;;;;;;;97.97;19.70;;;;;;;;;;4976675;28;20015;-68
2022/06/09 07:55:14;;;;;;;17.75;6.10;;;;;;;;;;4992368;28;20037;-68
2022/06/09 07:57:40;;;;;;;39.97;9.25;;;;;;;;;;4983393;28;20054;-68
2022/06/09 08:00:08;;;;;;;11.07;4.50;;;;;;;;;;4994524;28;20372;-68
2022/06/09 08:02:34;;;;;;;16.10;5.18;;;;;;;;;;4980910;28;20031;-67
2022/06/09 08:05:00;;;;;;;5.68;2.60;;;;;;;;;;4955704;28;20388;-68
2022/06/09 08:07:26;;;;;;;9.18;3.58;;;;;;;;;;4955538;28;20023;-66
2022/06/09 08:09:52;;;;;;;9.68;3.80;;;;;;;;;;4954543;28;20456;-67
2022/06/09 08:12:18;;;;;;;7.53;2.85;;;;;;;;;;4957006;28;20031;-68
2022/06/09 08:14:44;;;;;;;6.60;3.33;;;;;;;;;;4955753;28;20503;-66
2022/06/09 08:17:11;;;;;;;10.98;3.80;;;;;;;;;;4962680;28;20045;-68
2022/06/09 08:19:36;;;;;;;3.00;2.35;;;;;;;;;;4976407;28;20093;-68
2022/06/09 08:22:02;;;;;;;8.63;3.40;;;;;;;;;;4984018;28;20105;-68
2022/06/09 08:24:28;;;;;;;7.85;3.30;;;;;;;;;;4995277;28;20026;-67
2022/06/09 08:26:54;;;;;;;16.77;3.42;;;;;;;;;;4994637;28;20416;-66
2022/06/09 08:29:20;;;;;;;6.47;3.00;;;;;;;;;;4994926;28;20438;-68
2022/06/09 08:31:45;;;;;;;4.97;2.28;;;;;;;;;;4994229;28;20030;-67
2022/06/09 08:34:11;;;;;;;7.05;3.10;;;;;;;;;;4995060;28;20063;-65
2022/06/09 08:36:38;;;;;;;7.22;3.47;;;;;;;;;;4995218;28;20030;-68
2022/06/09 08:39:04;;;;;;;4.85;2.90;;;;;;;;;;4995659;28;20026;-65
2022/06/09 08:42:06;;;;;;;5.85;2.97;;;;;;;;;;4995471;28;20030;-67
2022/06/09 08:44:41;;;;;;;4.40;2.20;;;;;;;;;;4995183;28;20026;-67
2022/06/09 08:47:25;;;;;;;4.10;2.60;;;;;;;;;;4995456;28;20037;-67
2022/06/09 08:50:19;;;;;;;3.75;2.50;;;;;;;;;;4994944;28;20085;-67
2022/06/09 08:52:57;;;;;;;8.45;3.22;;;;;;;;;;4995270;28;20053;-67
2022/06/09 08:55:36;;;;;;;5.75;2.90;;;;;;;;;;4994992;28;20038;-66
2022/06/09 08:58:13;;;;;;;8.57;2.60;;;;;;;;;;4994913;28;20071;-67
2022/06/09 09:00:44;;;;;;;4.07;2.42;;;;;;;;;;4995033;28;20487;-67
2022/06/09 09:03:16;;;;;;;4.57;2.40;;;;;;;;;;4994989;28;20034;-67
2022/06/09 09:05:58;;;;;;;4.78;2.30;;;;;;;;;;4995113;28;20042;-67
2022/06/09 09:08:25;;;;;;;12.43;3.03;;;;;;;;;;4994755;28;20026;-67
2022/06/09 09:10:50;;;;;;;4.45;2.50;;;;;;;;;;4994940;28;20049;-67
2022/06/09 09:13:38;;;;;;;3.55;2.45;;;;;;;;;;4994603;28;20102;-66
2022/06/09 09:16:16;;;;;;;5.55;2.80;;;;;;;;;;4994468;28;20046;-66
2022/06/09 09:18:55;;;;;;;4.90;2.60;;;;;;;;;;4994585;28;20038;-67
2022/06/09 09:21:24;;;;;;;5.03;2.70;;;;;;;;;;4994715;28;20116;-66
2022/06/09 09:24:05;;;;;;;3.97;2.63;;;;;;;;;;4994668;28;20150;-66
2022/06/09 09:26:33;;;;;;;4.38;2.60;;;;;;;;;;4994415;28;20030;-66
2022/06/09 09:29:22;;;;;;;3.72;2.65;;;;;;;;;;4994712;28;20026;-65
2022/06/09 09:31:50;;;;;;;3.60;2.50;;;;;;;;;;4991623;28;20046;-66
2022/06/09 09:34:21;;;;;;;6.45;2.83;;;;;;;;;;4994315;28;20471;-66
2022/06/09 09:36:51;;;;;;;7.57;2.20;;;;;;;;;;4994428;28;20042;-65
2022/06/09 09:39:26;;;;;;;4.43;2.28;;;;;;;;;;4994390;28;20065;-64
2022/06/09 09:42:08;;;;;;;4.25;2.10;;;;;;;;;;4994109;28;20113;-66
2022/06/09 09:44:34;;;;;;;5.75;2.42;;;;;;;;;;4993549;28;20032;-65
2022/06/09 09:47:02;;;;;;;4.65;2.53;;;;;;;;;;4994348;28;20372;-68
2022/06/09 09:49:30;;;;;;;5.00;2.28;;;;;;;;;;4994095;28;20105;-68
2022/06/09 09:51:58;;;;;;;5.05;2.47;;;;;;;;;;4994155;28;20030;-65
2022/06/09 09:54:31;;;;;;;4.72;2.47;;;;;;;;;;4994025;28;20030;-67
2022/06/09 09:57:16;;;;;;;18.48;3.38;;;;;;;;;;4994058;28;20446;-67
2022/06/09 09:59:46;;;;;;;6.80;2.10;;;;;;;;;;4993989;28;20023;-67
2022/06/09 10:08:36;;;;;;;5.68;1.98;;;;;;;;;;4993957;28;20508;-67
2022/06/09 10:11:53;;;;;;;3.25;1.98;;;;;;;;;;4992453;28;20034;-67
2022/06/09 10:13:51;;;;;;;3.47;1.70;;;;;;;;;;4993567;28;20026;-66
2022/06/09 10:16:19;;;;;;;2.50;1.70;;;;;;;;;;4992275;28;20054;-65
2022/06/09 10:18:51;;;;;;;2.38;1.75;;;;;;;;;;4993612;28;20479;-65
2022/06/09 10:21:16;;;;;;;3.25;1.40;;;;;;;;;;4993752;28;20026;-65
2022/06/09 10:23:59;;;;;;;3.38;1.40;;;;;;;;;;4993697;28;20033;-65
2022/06/09 10:26:38;;;;;;;4.18;1.30;;;;;;;;;;4993439;28;20027;-65
2022/06/09 10:29:06;;;;;;;2.80;1.52;;;;;;;;;;4993422;28;20080;-64
2022/06/09 10:31:53;;;;;;;2.10;1.27;;;;;;;;;;4993297;28;20446;-62
2022/06/09 10:34:48;;;;;;;3.03;1.70;;;;;;;;;;4993339;28;20030;-66
2022/06/09 10:37:16;;;;;;;3.05;1.50;;;;;;;;;;4993569;28;20029;-65
2022/06/09 10:40:11;;;;;;;2.35;1.58;;;;;;;;;;4993237;28;20050;-65
2022/06/09 10:42:52;;;;;;;3.30;1.50;;;;;;;;;;4993514;28;20062;-65
2022/06/09 10:45:21;;;;;;;2.75;1.45;;;;;;;;;;4993259;28;20026;-65
2022/06/09 10:56:55;;;;;;;2.08;1.50;;;;;;;;;;4997450;28;20112;-63
2022/06/09 10:59:31;;;;;;;6.10;1.80;;;;;;;;;;4997416;28;20067;-65
2022/06/09 11:01:57;;;;;;;3.28;1.38;;;;;;;;;;4997465;28;20033;-62
2022/06/09 11:04:24;;;;;;;4.28;1.58;;;;;;;;;;4997379;28;20109;-67
2022/06/09 11:07:13;;;;;;;6.45;1.75;;;;;;;;;;4997130;28;20034;-67
2022/06/09 11:09:44;;;;;;;2.90;1.63;;;;;;;;;;4996810;28;20113;-68
2022/06/09 11:12:33;;;;;;;3.17;1.60;;;;;;;;;;4997262;28;20655;-68
2022/06/09 11:15:03;;;;;;;2.65;1.60;;;;;;;;;;4996860;28;20034;-66
2022/06/09 11:17:51;;;;;;;3.03;1.70;;;;;;;;;;4996518;28;20038;-67
2022/06/09 11:20:44;;;;;;;2.60;1.60;;;;;;;;;;4996643;28;20030;-68
2022/06/09 11:23:29;;;;;;;5.05;1.85;;;;;;;;;;4996640;28;20088;-66
2022/06/09 11:26:09;;;;;;;3.03;1.50;;;;;;;;;;4995571;28;20022;-67
2022/06/09 11:28:44;;;;;;;2.83;1.55;;;;;;;;;;4996895;28;20038;-68
2022/06/09 11:31:44;;;;;;;6.50;1.88;;;;;;;;;;4996841;28;20025;-67
2022/06/09 11:34:31;;;;;;;5.65;1.77;;;;;;;;;;4996517;28;20034;-66
2022/06/09 11:37:29;;;;;;;4.43;1.60;;;;;;;;;;4996615;28;20027;-67
2022/06/09 11:40:13;;;;;;;3.05;1.48;;;;;;;;;;4996554;28;20033;-65
2022/06/09 11:43:27;;;;;;;3.33;1.50;;;;;;;;;;4996570;28;20081;-67
2022/06/09 11:45:57;;;;;;;7.78;1.70;;;;;;;;;;4996552;28;20030;-67
2022/06/09 11:48:36;;;;;;;2.67;1.70;;;;;;;;;;4996417;28;20034;-67
2022/06/09 11:51:03;;;;;;;5.10;1.70;;;;;;;;;;4995154;28;20058;-66
2022/06/09 11:53:35;;;;;;;4.47;1.80;;;;;;;;;;4996101;28;20028;-67
2022/06/09 11:56:45;;;;;;;5.53;1.55;;;;;;;;;;4996327;28;20069;-68
2022/06/09 11:59:42;;;;;;;2.90;1.48;;;;;;;;;;4993699;28;20125;-68
2022/06/09 12:02:36;;;;;;;5.68;1.60;;;;;;;;;;4996007;28;20037;-68
2022/06/09 12:05:23;;;;;;;2.40;1.48;;;;;;;;;;4996175;28;20030;-68
2022/06/09 12:08:04;;;;;;;2.92;1.50;;;;;;;;;;4995078;28;20073;-67
2022/06/09 12:10:58;;;;;;;4.95;1.35;;;;;;;;;;4996114;28;20474;-68
2022/06/09 12:14:10;;;;;;;3.30;1.70;;;;;;;;;;4995999;28;20026;-68
2022/06/09 12:16:55;;;;;;;3.97;1.50;;;;;;;;;;4973926;28;20121;-67
2022/06/09 12:19:24;;;;;;;2.88;1.55;;;;;;;;;;4974182;28;20114;-69
2022/06/09 12:21:55;;;;;;;3.72;1.40;;;;;;;;;;4974146;28;20129;-68
2022/06/09 12:24:26;;;;;;;5.35;1.48;;;;;;;;;;4974381;28;20043;-68
2022/06/09 12:27:05;;;;;;;3.13;1.23;;;;;;;;;;4974070;28;20043;-67
2022/06/09 12:29:30;;;;;;;3.35;0.98;;;;;;;;;;4974377;28;20110;-67
2022/06/09 12:32:08;;;;;;;1.88;1.00;;;;;;;;;;4974057;28;20114;-68
2022/06/09 12:34:39;;;;;;;1.40;0.70;;;;;;;;;;4973926;28;20046;-66
2022/06/09 12:37:13;;;;;;;2.28;0.75;;;;;;;;;;4973803;28;20538;-65
2022/06/09 12:39:41;;;;;;;4.68;0.70;;;;;;;;;;4974017;28;20494;-67
2022/06/09 12:42:15;;;;;;;4.05;0.88;;;;;;;;;;4973995;28;20428;-68
2022/06/09 12:44:49;;;;;;;2.08;0.80;;;;;;;;;;4973905;28;20089;-67
2022/06/09 12:47:24;;;;;;;2.83;0.90;;;;;;;;;;4973790;28;20039;-67
2022/06/09 12:49:56;;;;;;;3.55;0.80;;;;;;;;;;4973284;28;20085;-67
2022/06/09 12:52:30;;;;;;;1.08;0.70;;;;;;;;;;4976578;28;20042;-67
2022/06/09 12:55:02;;;;;;;1.65;0.75;;;;;;;;;;4995330;28;20364;-66
2022/06/09 12:57:31;;;;;;;2.20;0.82;;;;;;;;;;4994997;28;20050;-66
2022/06/09 13:00:12;;;;;;;2.67;1.00;;;;;;;;;;4995030;28;20419;-67
2022/06/09 13:02:39;;;;;;;1.60;0.90;;;;;;;;;;4994865;28;20480;-67
2022/06/09 13:05:10;;;;;;;2.97;0.82;;;;;;;;;;4994756;28;20057;-65
2022/06/09 13:07:55;;;;;;;2.95;0.80;;;;;;;;;;4993551;28;20026;-67
2022/06/09 13:10:27;;;;;;;1.05;0.70;;;;;;;;;;4994961;28;20027;-65
2022/06/09 13:13:02;;;;;;;3.20;0.80;;;;;;;;;;4994908;28;20109;-67
2022/06/09 13:15:42;;;;;;;5.85;0.90;;;;;;;;;;4994547;28;20030;-67
2022/06/09 13:18:11;;;;;;;3.55;0.98;;;;;;;;;;4994279;28;20396;-65
2022/06/09 13:20:37;;;;;;;2.22;1.00;;;;;;;;;;4994550;28;20084;-65
2022/06/09 13:23:05;;;;;;;4.22;1.30;;;;;;;;;;4994659;28;20105;-66
2022/06/09 13:25:30;;;;;;;3.88;1.00;;;;;;;;;;4994660;28;20035;-67
2022/06/09 13:27:57;;;;;;;6.50;1.00;;;;;;;;;;4994668;28;20033;-68
2022/06/09 13:30:40;;;;;;;4.88;1.10;;;;;;;;;;4994813;28;20509;-68
2022/06/09 13:33:33;;;;;;;2.53;1.00;;;;;;;;;;4994215;28;20080;-65
2022/06/09 13:36:26;;;;;;;4.22;1.00;;;;;;;;;;4994365;28;20088;-65
2022/06/09 13:38:52;;;;;;;2.05;1.10;;;;;;;;;;4994059;28;20105;-68
2022/06/09 13:41:37;;;;;;;8.35;1.10;;;;;;;;;;4994349;28;20089;-67
2022/06/09 13:44:13;;;;;;;4.60;1.30;;;;;;;;;;4994234;28;20062;-67
2022/06/09 13:47:00;;;;;;;3.25;1.00;;;;;;;;;;4994337;28;20029;-68
2022/06/09 13:49:30;;;;;;;2.75;1.10;;;;;;;;;;4993991;28;20026;-69
2022/06/09 13:52:05;;;;;;;4.00;1.30;;;;;;;;;;4994177;28;20033;-68
2022/06/09 13:54:47;;;;;;;3.65;1.20;;;;;;;;;;4994062;28;20041;-67
2022/06/09 13:57:21;;;;;;;6.05;1.15;;;;;;;;;;4994078;28;20038;-66
2022/06/09 13:59:47;;;;;;;1.67;1.10;;;;;;;;;;4994171;28;20100;-68
2022/06/09 14:02:20;;;;;;;2.22;1.10;;;;;;;;;;4993798;28;20483;-68
2022/06/09 14:04:46;;;;;;;2.03;1.00;;;;;;;;;;4993847;28;20365;-67
2022/06/09 14:07:17;;;;;;;2.80;0.98;;;;;;;;;;4993829;28;20031;-68
2022/06/09 14:09:45;;;;;;;4.13;1.13;;;;;;;;;;4993878;28;20030;-67
2022/06/09 14:12:11;;;;;;;3.97;1.17;;;;;;;;;;4993753;28;20034;-66
2022/06/09 14:14:38;;;;;;;2.22;1.20;;;;;;;;;;4993604;28;20510;-69
2022/06/09 14:17:04;;;;;;;1.42;0.90;;;;;;;;;;4993148;28;20039;-68
2022/06/09 14:19:29;;;;;;;4.53;1.10;;;;;;;;;;4993538;28;20034;-65
2022/06/09 14:21:55;;;;;;;4.57;0.98;;;;;;;;;;4993548;28;20472;-67
2022/06/09 14:24:23;;;;;;;2.78;1.15;;;;;;;;;;4993600;28;20038;-68
2022/06/09 14:26:54;;;;;;;3.22;1.27;;;;;;;;;;4993313;28;20031;-68
2022/06/09 14:29:21;;;;;;;3.47;1.20;;;;;;;;;;4993051;28;20061;-68
2022/06/09 14:31:47;;;;;;;1.95;1.10;;;;;;;;;;4993336;28;20427;-65
2022/06/09 14:34:15;;;;;;;3.17;1.10;;;;;;;;;;4993372;28;20076;-67
2022/06/09 14:36:43;;;;;;;2.60;1.00;;;;;;;;;;4993402;28;20063;-65
2022/06/09 14:39:14;;;;;;;2.33;1.20;;;;;;;;;;4993482;28;20080;-68
2022/06/09 14:41:40;;;;;;;4.47;1.30;;;;;;;;;;4993407;28;20322;-65
2022/06/09 14:44:05;;;;;;;1.65;1.00;;;;;;;;;;4992094;28;20089;-65
2022/06/09 14:46:43;;;;;;;2.92;1.10;;;;;;;;;;4993104;28;20109;-65
2022/06/09 14:49:16;;;;;;;4.63;1.00;;;;;;;;;;4993458;28;20034;-65
2022/06/09 14:51:41;;;;;;;1.90;1.00;;;;;;;;;;4993238;28;20030;-68
2022/06/09 14:54:07;;;;;;;3.15;1.10;;;;;;;;;;4991856;28;20033;-68
2022/06/09 14:56:39;;;;;;;3.95;1.23;;;;;;;;;;4993416;28;20523;-65
2022/06/09 14:59:06;;;;;;;2.95;1.13;;;;;;;;;;4993283;28;20027;-67
2022/06/09 15:01:32;;;;;;;4.53;1.10;;;;;;;;;;4992903;28;20088;-65
2022/06/09 15:03:57;;;;;;;5.72;1.10;;;;;;;;;;4993214;28;20027;-68
2022/06/09 15:06:23;;;;;;;1.98;1.10;;;;;;;;;;4993259;28;20029;-67
2022/06/09 15:08:50;;;;;;;2.60;1.08;;;;;;;;;;4993251;28;20038;-67
2022/06/09 15:11:19;;;;;;;2.58;1.27;;;;;;;;;;4993204;28;20479;-67
2022/06/09 15:13:48;;;;;;;1.85;1.08;;;;;;;;;;4993114;28;20027;-67
2022/06/09 15:16:14;;;;;;;3.00;1.23;;;;;;;;;;4991451;28;20399;-66
2022/06/09 15:18:40;;;;;;;2.90;1.13;;;;;;;;;;4992886;28;20729;-65
2022/06/09 15:21:06;;;;;;;3.67;1.10;;;;;;;;;;4993097;28;20022;-68
2022/06/09 15:23:31;;;;;;;2.22;1.10;;;;;;;;;;4991719;28;20027;-65
2022/06/09 15:25:57;;;;;;;2.22;1.10;;;;;;;;;;4992915;28;20109;-65
2022/06/09 15:28:24;;;;;;;2.47;1.02;;;;;;;;;;4993072;28;20018;-65
2022/06/09 15:30:52;;;;;;;4.03;1.00;;;;;;;;;;4992876;28;20041;-65
2022/06/09 15:33:21;;;;;;;2.95;1.30;;;;;;;;;;4993086;28;20097;-66
2022/06/09 15:35:49;;;;;;;3.35;0.90;;;;;;;;;;4991335;28;20388;-66